sensor_id;sensor_type;location;lat;lon;timestamp;pressure;altitude;pressure_sealevel;temperature;humidity
67840;BME280;54636;51.684;5.142;2022-09-19T00:01:32;101897.25;;;6.73;100.00
67840;BME280;54636;51.684;5.142;2022-09-19T00:04:18;101897.69;;;6.72;100.00
67840;BME280;54636;51.684;5.142;2022-09-19T00:06:45;101856.03;;;6.44;100.00
67840;BME280;54636;51.684;5.142;2022-09-19T00:09:14;101903.59;;;6.67;100.00
67840;BME280;54636;51.684;5.142;2022-09-19T00:11:41;101892.56;;;6.61;100.00
67840;BME280;54636;51.684;5.142;2022-09-19T00:14:09;101894.59;;;6.57;100.00
67840;BME280;54636;51.684;5.142;2022-09-19T00:16:41;101896.88;;;6.58;100.00
67840;BME280;54636;51.684;5.142;2022-09-19T00:19:09;101898.91;;;6.54;100.00
67840;BME280;54636;51.684;5.142;2022-09-19T00:21:38;101903.53;;;6.54;100.00
67840;BME280;54636;51.684;5.142;2022-09-19T00:24:05;101888.41;;;6.44;100.00
67840;BME280;54636;51.684;5.142;2022-09-19T00:26:49;101890.47;;;6.52;100.00
67840;BME280;54636;51.684;5.142;2022-09-19T00:29:17;101888.75;;;6.46;100.00
67840;BME280;54636;51.684;5.142;2022-09-19T00:31:44;101883.75;;;6.44;100.00
67840;BME280;54636;51.684;5.142;2022-09-19T00:34:11;101892.94;;;6.47;100.00
67840;BME280;54636;51.684;5.142;2022-09-19T00:36:38;101881.44;;;6.30;100.00
67840;BME280;54636;51.684;5.142;2022-09-19T00:39:05;101898.00;;;6.45;100.00
67840;BME280;54636;51.684;5.142;2022-09-19T00:41:31;101901.13;;;6.43;100.00
67840;BME280;54636;51.684;5.142;2022-09-19T00:43:59;101881.00;;;6.32;100.00
67840;BME280;54636;51.684;5.142;2022-09-19T00:46:27;101889.84;;;6.32;100.00
67840;BME280;54636;51.684;5.142;2022-09-19T00:49:01;101900.03;;;6.41;100.00
67840;BME280;54636;51.684;5.142;2022-09-19T00:51:32;101896.69;;;6.37;100.00
67840;BME280;54636;51.684;5.142;2022-09-19T00:54:09;101896.25;;;6.38;100.00
67840;BME280;54636;51.684;5.142;2022-09-19T00:56:41;101905.13;;;6.39;100.00
67840;BME280;54636;51.684;5.142;2022-09-19T00:59:08;101895.69;;;6.31;100.00
67840;BME280;54636;51.684;5.142;2022-09-19T01:01:34;101888.44;;;6.27;100.00
67840;BME280;54636;51.684;5.142;2022-09-19T01:04:00;101899.13;;;6.31;100.00
67840;BME280;54636;51.684;5.142;2022-09-19T01:17:53;101903.50;;;6.41;100.00
67840;BME280;54636;51.684;5.142;2022-09-19T01:29:30;101901.22;;;6.40;100.00
67840;BME280;54636;51.684;5.142;2022-09-19T01:31:59;101905.25;;;6.48;100.00
67840;BME280;54636;51.684;5.142;2022-09-19T01:34:30;101899.19;;;6.44;100.00
67840;BME280;54636;51.684;5.142;2022-09-19T01:37:05;101915.00;;;6.58;100.00
67840;BME280;54636;51.684;5.142;2022-09-19T01:39:34;101898.22;;;6.50;100.00
67840;BME280;54636;51.684;5.142;2022-09-19T01:42:01;101920.22;;;6.65;100.00
67840;BME280;54636;51.684;5.142;2022-09-19T01:44:29;101922.50;;;6.67;100.00
67840;BME280;54636;51.684;5.142;2022-09-19T01:58:09;101925.03;;;6.57;100.00
67840;BME280;54636;51.684;5.142;2022-09-19T02:00:47;101933.47;;;6.59;100.00
67840;BME280;54636;51.684;5.142;2022-09-19T02:03:47;101925.38;;;6.59;100.00
67840;BME280;54636;51.684;5.142;2022-09-19T02:06:42;101928.94;;;6.56;100.00
67840;BME280;54636;51.684;5.142;2022-09-19T02:09:17;101928.59;;;6.54;100.00
67840;BME280;54636;51.684;5.142;2022-09-19T02:11:45;101919.19;;;6.46;100.00
67840;BME280;54636;51.684;5.142;2022-09-19T02:14:13;101916.31;;;6.37;100.00
67840;BME280;54636;51.684;5.142;2022-09-19T02:16:57;101926.19;;;6.44;100.00
67840;BME280;54636;51.684;5.142;2022-09-19T02:19:31;101931.16;;;6.45;100.00
67840;BME280;54636;51.684;5.142;2022-09-19T02:22:09;101929.66;;;6.44;100.00
67840;BME280;54636;51.684;5.142;2022-09-19T02:24:37;101936.56;;;6.45;100.00
67840;BME280;54636;51.684;5.142;2022-09-19T02:27:10;101924.19;;;6.32;100.00
67840;BME280;54636;51.684;5.142;2022-09-19T02:29:48;101923.84;;;6.30;100.00
67840;BME280;54636;51.684;5.142;2022-09-19T02:32:17;101934.72;;;6.26;100.00
67840;BME280;54636;51.684;5.142;2022-09-19T02:34:45;101951.25;;;6.28;100.00
67840;BME280;54636;51.684;5.142;2022-09-19T02:37:33;101948.63;;;6.24;100.00
67840;BME280;54636;51.684;5.142;2022-09-19T02:40:24;101954.88;;;6.21;100.00
67840;BME280;54636;51.684;5.142;2022-09-19T02:43:08;101936.75;;;6.06;100.00
67840;BME280;54636;51.684;5.142;2022-09-19T02:45:44;101944.16;;;6.18;100.00
67840;BME280;54636;51.684;5.142;2022-09-19T02:50:56;101931.34;;;6.06;100.00
67840;BME280;54636;51.684;5.142;2022-09-19T02:53:26;101934.97;;;6.15;100.00
67840;BME280;54636;51.684;5.142;2022-09-19T02:56:01;101940.97;;;6.23;100.00
67840;BME280;54636;51.684;5.142;2022-09-19T02:58:31;101947.63;;;6.35;100.00
67840;BME280;54636;51.684;5.142;2022-09-19T03:01:02;101939.84;;;6.37;100.00
67840;BME280;54636;51.684;5.142;2022-09-19T03:03:47;101948.25;;;6.55;100.00
67840;BME280;54636;51.684;5.142;2022-09-19T03:06:38;101949.16;;;6.65;100.00
67840;BME280;54636;51.684;5.142;2022-09-19T03:09:08;101940.28;;;6.64;100.00
67840;BME280;54636;51.684;5.142;2022-09-19T03:11:40;101931.25;;;6.71;100.00
67840;BME280;54636;51.684;5.142;2022-09-19T03:14:07;101945.56;;;6.84;100.00
67840;BME280;54636;51.684;5.142;2022-09-19T03:16:38;101939.16;;;6.78;100.00
67840;BME280;54636;51.684;5.142;2022-09-19T03:19:08;101949.19;;;6.93;100.00
67840;BME280;54636;51.684;5.142;2022-09-19T03:21:34;101951.03;;;6.97;100.00
67840;BME280;54636;51.684;5.142;2022-09-19T03:24:01;101934.59;;;6.91;100.00
67840;BME280;54636;51.684;5.142;2022-09-19T03:26:31;101909.13;;;6.76;100.00
67840;BME280;54636;51.684;5.142;2022-09-19T03:28:58;101950.41;;;7.05;100.00
67840;BME280;54636;51.684;5.142;2022-09-19T03:31:24;101949.31;;;7.03;100.00
67840;BME280;54636;51.684;5.142;2022-09-19T03:33:51;101914.78;;;6.81;100.00
67840;BME280;54636;51.684;5.142;2022-09-19T03:36:17;101950.16;;;7.00;100.00
67840;BME280;54636;51.684;5.142;2022-09-19T03:38:44;101951.69;;;7.01;100.00
67840;BME280;54636;51.684;5.142;2022-09-19T03:41:18;101940.41;;;6.89;100.00
67840;BME280;54636;51.684;5.142;2022-09-19T03:43:45;101951.78;;;6.97;100.00
67840;BME280;54636;51.684;5.142;2022-09-19T03:46:12;101952.31;;;6.92;100.00
67840;BME280;54636;51.684;5.142;2022-09-19T03:48:39;101952.31;;;6.92;100.00
67840;BME280;54636;51.684;5.142;2022-09-19T03:51:05;101943.44;;;6.91;100.00
67840;BME280;54636;51.684;5.142;2022-09-19T03:53:30;101959.88;;;6.97;100.00
67840;BME280;54636;51.684;5.142;2022-09-19T03:55:56;101961.50;;;6.94;100.00
67840;BME280;54636;51.684;5.142;2022-09-19T03:58:22;101948.59;;;6.86;100.00
67840;BME280;54636;51.684;5.142;2022-09-19T04:00:49;101972.53;;;7.00;100.00
67840;BME280;54636;51.684;5.142;2022-09-19T04:03:16;101972.44;;;7.04;100.00
67840;BME280;54636;51.684;5.142;2022-09-19T04:05:44;101973.97;;;7.05;100.00
67840;BME280;54636;51.684;5.142;2022-09-19T04:08:09;101962.25;;;6.95;100.00
67840;BME280;54636;51.684;5.142;2022-09-19T04:10:36;101970.41;;;7.08;100.00
67840;BME280;54636;51.684;5.142;2022-09-19T04:13:02;101974.19;;;7.10;100.00
67840;BME280;54636;51.684;5.142;2022-09-19T04:15:27;101975.28;;;7.13;100.00
67840;BME280;54636;51.684;5.142;2022-09-19T04:17:52;101957.66;;;7.08;100.00
67840;BME280;54636;51.684;5.142;2022-09-19T04:20:18;101987.28;;;7.24;100.00
67840;BME280;54636;51.684;5.142;2022-09-19T04:22:43;101990.22;;;7.30;100.00
67840;BME280;54636;51.684;5.142;2022-09-19T04:25:09;101981.25;;;7.33;100.00
67840;BME280;54636;51.684;5.142;2022-09-19T04:27:39;101980.31;;;7.40;100.00
67840;BME280;54636;51.684;5.142;2022-09-19T04:30:05;101997.09;;;7.47;100.00
67840;BME280;54636;51.684;5.142;2022-09-19T04:32:31;101984.97;;;7.52;100.00
67840;BME280;54636;51.684;5.142;2022-09-19T04:34:57;101997.53;;;7.58;100.00
67840;BME280;54636;51.684;5.142;2022-09-19T04:37:24;101989.00;;;7.60;100.00
67840;BME280;54636;51.684;5.142;2022-09-19T04:39:50;101989.75;;;7.60;100.00
67840;BME280;54636;51.684;5.142;2022-09-19T04:42:16;101952.53;;;7.39;100.00
67840;BME280;54636;51.684;5.142;2022-09-19T04:44:42;101984.03;;;7.58;100.00
67840;BME280;54636;51.684;5.142;2022-09-19T04:47:08;101997.66;;;7.68;100.00
67840;BME280;54636;51.684;5.142;2022-09-19T04:49:35;102002.97;;;7.71;100.00
67840;BME280;54636;51.684;5.142;2022-09-19T04:52:03;101999.59;;;7.67;100.00
67840;BME280;54636;51.684;5.142;2022-09-19T04:54:29;102001.88;;;7.69;100.00
67840;BME280;54636;51.684;5.142;2022-09-19T04:57:00;101999.38;;;7.62;100.00
67840;BME280;54636;51.684;5.142;2022-09-19T04:59:25;101999.25;;;7.52;100.00
67840;BME280;54636;51.684;5.142;2022-09-19T05:01:51;102006.63;;;7.52;100.00
67840;BME280;54636;51.684;5.142;2022-09-19T05:04:17;102004.25;;;7.54;100.00
67840;BME280;54636;51.684;5.142;2022-09-19T05:06:43;102015.91;;;7.51;100.00
67840;BME280;54636;51.684;5.142;2022-09-19T05:09:09;101993.06;;;7.39;100.00
67840;BME280;54636;51.684;5.142;2022-09-19T05:11:36;102008.31;;;7.46;100.00
67840;BME280;54636;51.684;5.142;2022-09-19T05:14:07;102007.47;;;7.49;100.00
67840;BME280;54636;51.684;5.142;2022-09-19T05:16:34;102006.59;;;7.39;100.00
67840;BME280;54636;51.684;5.142;2022-09-19T05:19:00;102012.53;;;7.47;100.00
67840;BME280;54636;51.684;5.142;2022-09-19T05:21:25;102011.88;;;7.43;100.00
67840;BME280;54636;51.684;5.142;2022-09-19T05:23:52;102007.19;;;7.31;100.00
67840;BME280;54636;51.684;5.142;2022-09-19T05:26:17;102016.41;;;7.33;100.00
67840;BME280;54636;51.684;5.142;2022-09-19T05:28:43;102016.81;;;7.32;100.00
67840;BME280;54636;51.684;5.142;2022-09-19T05:31:10;102010.75;;;7.27;100.00
67840;BME280;54636;51.684;5.142;2022-09-19T05:33:36;102019.00;;;7.37;100.00
67840;BME280;54636;51.684;5.142;2022-09-19T05:36:02;102022.19;;;7.48;100.00
67840;BME280;54636;51.684;5.142;2022-09-19T05:38:30;102030.09;;;7.55;100.00
67840;BME280;54636;51.684;5.142;2022-09-19T05:40:57;102018.50;;;7.54;100.00
67840;BME280;54636;51.684;5.142;2022-09-19T05:43:24;102027.19;;;7.62;100.00
67840;BME280;54636;51.684;5.142;2022-09-19T05:45:50;102033.16;;;7.70;100.00
67840;BME280;54636;51.684;5.142;2022-09-19T05:48:16;102034.91;;;7.76;100.00
67840;BME280;54636;51.684;5.142;2022-09-19T05:50:43;102037.59;;;7.76;100.00
67840;BME280;54636;51.684;5.142;2022-09-19T05:53:09;102034.03;;;7.79;100.00
67840;BME280;54636;51.684;5.142;2022-09-19T05:55:54;102034.31;;;7.81;100.00
67840;BME280;54636;51.684;5.142;2022-09-19T05:58:19;102036.41;;;7.77;100.00
67840;BME280;54636;51.684;5.142;2022-09-19T06:00:46;102020.59;;;7.63;100.00
67840;BME280;54636;51.684;5.142;2022-09-19T06:03:13;102029.59;;;7.73;100.00
67840;BME280;54636;51.684;5.142;2022-09-19T06:05:44;102046.03;;;7.91;100.00
67840;BME280;54636;51.684;5.142;2022-09-19T06:08:11;102043.00;;;8.02;100.00
67840;BME280;54636;51.684;5.142;2022-09-19T06:10:39;102044.97;;;8.14;100.00
67840;BME280;54636;51.684;5.142;2022-09-19T06:13:06;102046.28;;;8.22;100.00
67840;BME280;54636;51.684;5.142;2022-09-19T06:15:33;102020.59;;;8.01;100.00
67840;BME280;54636;51.684;5.142;2022-09-19T06:17:59;102048.09;;;8.25;100.00
67840;BME280;54636;51.684;5.142;2022-09-19T06:20:25;102049.19;;;8.27;100.00
67840;BME280;54636;51.684;5.142;2022-09-19T06:22:57;102018.13;;;8.19;100.00
67840;BME280;54636;51.684;5.142;2022-09-19T06:25:26;102053.72;;;8.56;100.00
67840;BME280;54636;51.684;5.142;2022-09-19T06:27:53;102060.09;;;8.62;100.00
67840;BME280;54636;51.684;5.142;2022-09-19T06:30:19;102061.50;;;8.67;100.00
67840;BME280;54636;51.684;5.142;2022-09-19T06:32:44;102065.94;;;8.73;100.00
67840;BME280;54636;51.684;5.142;2022-09-19T06:35:13;102028.69;;;8.52;100.00
67840;BME280;54636;51.684;5.142;2022-09-19T06:37:38;102067.53;;;8.83;100.00
67840;BME280;54636;51.684;5.142;2022-09-19T06:40:04;102066.25;;;8.75;100.00
67840;BME280;54636;51.684;5.142;2022-09-19T06:42:29;102064.84;;;8.71;100.00
67840;BME280;54636;51.684;5.142;2022-09-19T06:44:55;102060.44;;;8.64;100.00
67840;BME280;54636;51.684;5.142;2022-09-19T06:47:20;102068.31;;;8.71;100.00
67840;BME280;54636;51.684;5.142;2022-09-19T06:49:45;102060.31;;;8.68;100.00
67840;BME280;54636;51.684;5.142;2022-09-19T06:52:11;102073.75;;;8.71;100.00
67840;BME280;54636;51.684;5.142;2022-09-19T06:54:36;102073.19;;;8.76;100.00
67840;BME280;54636;51.684;5.142;2022-09-19T06:57:02;102092.13;;;8.89;100.00
67840;BME280;54636;51.684;5.142;2022-09-19T06:59:27;102068.63;;;8.86;100.00
67840;BME280;54636;51.684;5.142;2022-09-19T07:01:53;102084.22;;;9.16;100.00
67840;BME280;54636;51.684;5.142;2022-09-19T07:04:18;102097.38;;;9.40;100.00
67840;BME280;54636;51.684;5.142;2022-09-19T07:06:44;102091.47;;;9.54;100.00
67840;BME280;54636;51.684;5.142;2022-09-19T07:09:10;102090.44;;;9.61;100.00
67840;BME280;54636;51.684;5.142;2022-09-19T07:11:35;102083.56;;;9.69;100.00
67840;BME280;54636;51.684;5.142;2022-09-19T07:14:03;102073.38;;;9.82;100.00
67840;BME280;54636;51.684;5.142;2022-09-19T07:16:29;102100.97;;;10.11;100.00
67840;BME280;54636;51.684;5.142;2022-09-19T07:18:55;102110.06;;;10.17;100.00
67840;BME280;54636;51.684;5.142;2022-09-19T07:21:20;102122.56;;;10.15;100.00
67840;BME280;54636;51.684;5.142;2022-09-19T07:23:45;102113.22;;;10.16;100.00
67840;BME280;54636;51.684;5.142;2022-09-19T07:26:13;102112.91;;;10.14;100.00
67840;BME280;54636;51.684;5.142;2022-09-19T07:28:39;102116.34;;;10.36;100.00
67840;BME280;54636;51.684;5.142;2022-09-19T07:31:04;102117.44;;;10.48;100.00
67840;BME280;54636;51.684;5.142;2022-09-19T07:33:30;102092.66;;;10.46;100.00
67840;BME280;54636;51.684;5.142;2022-09-19T07:35:56;102103.53;;;10.46;100.00
67840;BME280;54636;51.684;5.142;2022-09-19T07:38:23;102103.84;;;10.48;100.00
67840;BME280;54636;51.684;5.142;2022-09-19T07:40:49;102123.97;;;10.60;100.00
67840;BME280;54636;51.684;5.142;2022-09-19T07:43:16;102125.31;;;10.55;100.00
67840;BME280;54636;51.684;5.142;2022-09-19T07:45:46;102136.34;;;10.61;100.00
67840;BME280;54636;51.684;5.142;2022-09-19T07:48:13;102128.59;;;10.50;100.00
67840;BME280;54636;51.684;5.142;2022-09-19T07:50:39;102140.41;;;10.56;100.00
67840;BME280;54636;51.684;5.142;2022-09-19T07:53:06;102142.06;;;10.53;100.00
67840;BME280;54636;51.684;5.142;2022-09-19T07:55:33;102122.69;;;10.33;100.00
67840;BME280;54636;51.684;5.142;2022-09-19T07:58:00;102137.19;;;10.48;100.00
67840;BME280;54636;51.684;5.142;2022-09-19T08:00:27;102125.41;;;10.42;100.00
67840;BME280;54636;51.684;5.142;2022-09-19T08:03:20;102138.84;;;10.46;100.00
67840;BME280;54636;51.684;5.142;2022-09-19T08:05:50;102124.50;;;10.45;100.00
67840;BME280;54636;51.684;5.142;2022-09-19T08:08:17;102145.25;;;10.61;100.00
67840;BME280;54636;51.684;5.142;2022-09-19T08:10:43;102131.53;;;10.65;100.00
67840;BME280;54636;51.684;5.142;2022-09-19T08:13:11;102150.00;;;10.88;100.00
67840;BME280;54636;51.684;5.142;2022-09-19T08:15:37;102150.19;;;11.03;100.00
67840;BME280;54636;51.684;5.142;2022-09-19T08:18:13;102143.38;;;11.07;100.00
67840;BME280;54636;51.684;5.142;2022-09-19T08:20:41;102144.16;;;11.17;100.00
67840;BME280;54636;51.684;5.142;2022-09-19T08:23:09;102145.97;;;11.29;100.00
67840;BME280;54636;51.684;5.142;2022-09-19T08:25:37;102160.78;;;11.37;100.00
67840;BME280;54636;51.684;5.142;2022-09-19T08:28:06;102162.00;;;11.54;100.00
67840;BME280;54636;51.684;5.142;2022-09-19T08:30:33;102160.50;;;11.53;100.00
67840;BME280;54636;51.684;5.142;2022-09-19T08:33:02;102174.41;;;11.65;100.00
67840;BME280;54636;51.684;5.142;2022-09-19T08:35:29;102173.31;;;11.71;100.00
67840;BME280;54636;51.684;5.142;2022-09-19T08:37:59;102151.28;;;11.69;100.00
67840;BME280;54636;51.684;5.142;2022-09-19T08:40:28;102171.38;;;11.90;100.00
67840;BME280;54636;51.684;5.142;2022-09-19T08:43:13;102176.50;;;12.06;100.00
67840;BME280;54636;51.684;5.142;2022-09-19T08:48:48;102168.00;;;12.13;100.00
67840;BME280;54636;51.684;5.142;2022-09-19T08:54:15;102146.63;;;12.21;100.00
67840;BME280;54636;51.684;5.142;2022-09-19T08:56:43;102184.50;;;12.52;100.00
67840;BME280;54636;51.684;5.142;2022-09-19T08:59:18;102170.69;;;12.65;100.00
67840;BME280;54636;51.684;5.142;2022-09-19T09:01:46;102178.41;;;12.66;100.00
67840;BME280;54636;51.684;5.142;2022-09-19T09:04:28;102181.66;;;12.79;100.00
67840;BME280;54636;51.684;5.142;2022-09-19T09:23:19;102181.44;;;13.40;92.74
67840;BME280;54636;51.684;5.142;2022-09-19T09:25:49;102173.00;;;13.52;89.81
67840;BME280;54636;51.684;5.142;2022-09-19T09:30:58;102159.47;;;13.88;91.83
67840;BME280;54636;51.684;5.142;2022-09-19T09:33:33;102185.03;;;14.14;88.81
67840;BME280;54636;51.684;5.142;2022-09-19T09:36:11;102186.78;;;14.32;89.14
67840;BME280;54636;51.684;5.142;2022-09-19T09:38:55;102177.56;;;14.44;86.37
67840;BME280;54636;51.684;5.142;2022-09-19T09:41:31;102175.84;;;14.46;87.71
67840;BME280;54636;51.684;5.142;2022-09-19T09:52:47;102192.72;;;14.45;89.56
67840;BME280;54636;51.684;5.142;2022-09-19T10:01:31;102181.78;;;14.45;85.51
67840;BME280;54636;51.684;5.142;2022-09-19T10:04:36;102195.63;;;14.56;84.09
67840;BME280;54636;51.684;5.142;2022-09-19T10:09:59;102201.19;;;14.62;80.38
67840;BME280;54636;51.684;5.142;2022-09-19T10:12:43;102210.44;;;14.49;84.08
67840;BME280;54636;51.684;5.142;2022-09-19T10:15:17;102192.72;;;14.45;82.37
67840;BME280;54636;51.684;5.142;2022-09-19T10:17:47;102198.47;;;14.47;83.03
67840;BME280;54636;51.684;5.142;2022-09-19T10:20:31;102209.88;;;14.60;87.43
67840;BME280;54636;51.684;5.142;2022-09-19T10:22:57;102208.59;;;14.76;83.14
67840;BME280;54636;51.684;5.142;2022-09-19T10:25:22;102203.09;;;14.91;82.49
67840;BME280;54636;51.684;5.142;2022-09-19T10:27:48;102194.88;;;15.11;80.85
67840;BME280;54636;51.684;5.142;2022-09-19T10:30:26;102210.34;;;15.55;80.67
67840;BME280;54636;51.684;5.142;2022-09-19T10:32:53;102194.91;;;15.77;78.19
67840;BME280;54636;51.684;5.142;2022-09-19T10:35:34;102204.97;;;15.86;74.92
67840;BME280;54636;51.684;5.142;2022-09-19T10:38:01;102208.88;;;15.79;74.88
67840;BME280;54636;51.684;5.142;2022-09-19T10:40:28;102204.50;;;15.67;74.42
67840;BME280;54636;51.684;5.142;2022-09-19T10:42:55;102203.00;;;15.66;78.58
67840;BME280;54636;51.684;5.142;2022-09-19T10:45:33;102207.47;;;15.64;77.36
67840;BME280;54636;51.684;5.142;2022-09-19T10:48:25;102205.19;;;15.57;78.17
67840;BME280;54636;51.684;5.142;2022-09-19T10:50:52;102194.31;;;15.68;77.83
67840;BME280;54636;51.684;5.142;2022-09-19T10:53:21;102192.81;;;16.19;74.72
67840;BME280;54636;51.684;5.142;2022-09-19T10:55:50;102197.06;;;16.57;73.36
67840;BME280;54636;51.684;5.142;2022-09-19T10:58:21;102196.94;;;16.71;69.50
67840;BME280;54636;51.684;5.142;2022-09-19T11:03:20;102198.53;;;16.89;63.02
67840;BME280;54636;51.684;5.142;2022-09-19T11:06:03;102193.69;;;16.73;67.88
67840;BME280;54636;51.684;5.142;2022-09-19T11:08:29;102187.31;;;16.56;66.46
67840;BME280;54636;51.684;5.142;2022-09-19T11:10:55;102185.75;;;16.43;65.87
67840;BME280;54636;51.684;5.142;2022-09-19T11:13:21;102142.31;;;15.99;66.94
67840;BME280;54636;51.684;5.142;2022-09-19T11:16:11;102194.56;;;16.22;68.88
67840;BME280;54636;51.684;5.142;2022-09-19T11:18:51;102195.94;;;16.06;68.73
67840;BME280;54636;51.684;5.142;2022-09-19T11:24:15;102200.50;;;15.89;69.53
67840;BME280;54636;51.684;5.142;2022-09-19T11:43:31;102184.97;;;16.06;64.78
67840;BME280;54636;51.684;5.142;2022-09-19T11:46:12;102175.25;;;16.05;64.98
67840;BME280;54636;51.684;5.142;2022-09-19T11:56:27;102170.44;;;16.31;65.00
67840;BME280;54636;51.684;5.142;2022-09-19T12:04:53;102123.13;;;16.36;59.80
67840;BME280;54636;51.684;5.142;2022-09-19T12:08:06;102173.00;;;16.72;63.13
67840;BME280;54636;51.684;5.142;2022-09-19T12:10:50;102161.06;;;16.81;61.44
67840;BME280;54636;51.684;5.142;2022-09-19T12:13:33;102177.84;;;16.99;63.39
67840;BME280;54636;51.684;5.142;2022-09-19T12:16:08;102159.16;;;17.03;59.25
67840;BME280;54636;51.684;5.142;2022-09-19T12:21:11;102171.19;;;17.17;59.92
67840;BME280;54636;51.684;5.142;2022-09-19T12:23:46;102167.25;;;17.29;60.42
67840;BME280;54636;51.684;5.142;2022-09-19T12:26:52;102175.97;;;17.28;58.75
67840;BME280;54636;51.684;5.142;2022-09-19T12:29:27;102178.00;;;17.33;59.37
67840;BME280;54636;51.684;5.142;2022-09-19T12:32:02;102154.75;;;17.23;58.98
67840;BME280;54636;51.684;5.142;2022-09-19T12:34:45;102156.28;;;17.40;57.27
67840;BME280;54636;51.684;5.142;2022-09-19T12:40:30;102178.53;;;17.42;55.34
67840;BME280;54636;51.684;5.142;2022-09-19T12:43:23;102178.50;;;17.37;57.77
67840;BME280;54636;51.684;5.142;2022-09-19T12:57:03;102187.81;;;16.97;56.94
67840;BME280;54636;51.684;5.142;2022-09-19T12:59:31;102171.34;;;16.97;54.30
67840;BME280;54636;51.684;5.142;2022-09-19T13:07:30;102182.63;;;17.86;56.17
67840;BME280;54636;51.684;5.142;2022-09-19T13:10:17;102180.88;;;18.17;55.83
67840;BME280;54636;51.684;5.142;2022-09-19T13:12:56;102176.59;;;18.27;51.67
67840;BME280;54636;51.684;5.142;2022-09-19T13:15:29;102188.84;;;18.26;50.43
67840;BME280;54636;51.684;5.142;2022-09-19T13:17:57;102180.59;;;18.37;51.85
67840;BME280;54636;51.684;5.142;2022-09-19T13:20:45;102181.34;;;18.54;51.90
67840;BME280;54636;51.684;5.142;2022-09-19T13:23:31;102171.31;;;18.79;51.04
67840;BME280;54636;51.684;5.142;2022-09-19T13:26:14;102162.59;;;18.64;52.59
67840;BME280;54636;51.684;5.142;2022-09-19T13:28:55;102183.31;;;18.59;52.20
67840;BME280;54636;51.684;5.142;2022-09-19T13:42:43;102192.09;;;17.74;58.91
67840;BME280;54636;51.684;5.142;2022-09-19T13:45:46;102203.34;;;17.76;59.37
67840;BME280;54636;51.684;5.142;2022-09-19T13:51:11;102217.00;;;17.59;58.22
67840;BME280;54636;51.684;5.142;2022-09-19T13:53:44;102209.97;;;17.41;59.56
67840;BME280;54636;51.684;5.142;2022-09-19T13:56:32;102200.50;;;17.42;58.61
67840;BME280;54636;51.684;5.142;2022-09-19T13:59:09;102210.94;;;17.27;58.91
67840;BME280;54636;51.684;5.142;2022-09-19T14:02:16;102209.84;;;17.08;59.92
67840;BME280;54636;51.684;5.142;2022-09-19T14:04:46;102179.97;;;16.73;60.30
67840;BME280;54636;51.684;5.142;2022-09-19T14:07:30;102150.13;;;16.49;60.23
67840;BME280;54636;51.684;5.142;2022-09-19T14:10:02;102203.56;;;16.59;59.35
67840;BME280;54636;51.684;5.142;2022-09-19T14:20:55;102181.84;;;16.19;63.78
67840;BME280;54636;51.684;5.142;2022-09-19T14:23:25;102160.84;;;16.10;63.96
67840;BME280;54636;51.684;5.142;2022-09-19T14:25:59;102200.22;;;16.44;64.40
67840;BME280;54636;51.684;5.142;2022-09-19T14:28:39;102213.44;;;16.45;64.61
67840;BME280;54636;51.684;5.142;2022-09-19T14:37:28;102202.56;;;16.25;66.80
67840;BME280;54636;51.684;5.142;2022-09-19T14:56:58;102221.13;;;16.10;69.72
67840;BME280;54636;51.684;5.142;2022-09-19T14:59:30;102193.34;;;15.71;70.81
67840;BME280;54636;51.684;5.142;2022-09-19T15:04:41;102213.03;;;15.95;71.07
67840;BME280;54636;51.684;5.142;2022-09-19T15:07:08;102209.31;;;15.98;70.74
67840;BME280;54636;51.684;5.142;2022-09-19T15:09:36;102214.03;;;15.98;70.01
67840;BME280;54636;51.684;5.142;2022-09-19T15:12:19;102203.19;;;15.83;70.35
67840;BME280;54636;51.684;5.142;2022-09-19T15:14:48;102207.84;;;15.77;71.05
67840;BME280;54636;51.684;5.142;2022-09-19T15:17:21;102212.78;;;15.73;71.46
67840;BME280;54636;51.684;5.142;2022-09-19T15:19:50;102216.44;;;15.64;71.51
67840;BME280;54636;51.684;5.142;2022-09-19T15:22:33;102210.75;;;15.68;71.96
67840;BME280;54636;51.684;5.142;2022-09-19T15:25:03;102221.50;;;15.51;70.45
67840;BME280;54636;51.684;5.142;2022-09-19T15:27:34;102188.94;;;15.33;71.13
67840;BME280;54636;51.684;5.142;2022-09-19T15:30:22;102196.25;;;15.41;72.10
67840;BME280;54636;51.684;5.142;2022-09-19T15:32:51;102214.44;;;15.65;71.29
67840;BME280;54636;51.684;5.142;2022-09-19T15:35:18;102198.22;;;15.61;71.91
67840;BME280;54636;51.684;5.142;2022-09-19T15:37:45;102207.31;;;15.73;72.20
67840;BME280;54636;51.684;5.142;2022-09-19T15:40:21;102177.16;;;15.47;72.42
67840;BME280;54636;51.684;5.142;2022-09-19T15:42:48;102198.91;;;15.56;72.02
67840;BME280;54636;51.684;5.142;2022-09-19T15:48:02;102221.13;;;15.58;73.00
67840;BME280;54636;51.684;5.142;2022-09-19T15:50:37;102214.41;;;15.59;71.85
67840;BME280;54636;51.684;5.142;2022-09-19T15:53:03;102212.91;;;15.58;72.07
67840;BME280;54636;51.684;5.142;2022-09-19T15:55:29;102212.91;;;15.58;73.36
67840;BME280;54636;51.684;5.142;2022-09-19T15:57:58;102206.72;;;15.63;73.09
67840;BME280;54636;51.684;5.142;2022-09-19T16:00:28;102217.53;;;15.72;73.92
67840;BME280;54636;51.684;5.142;2022-09-19T16:02:59;102182.91;;;15.49;73.42
67840;BME280;54636;51.684;5.142;2022-09-19T16:05:29;102179.34;;;15.43;73.77
67840;BME280;54636;51.684;5.142;2022-09-19T16:07:57;102175.31;;;15.38;72.19
67840;BME280;54636;51.684;5.142;2022-09-19T16:10:44;102203.09;;;15.52;72.39
67840;BME280;54636;51.684;5.142;2022-09-19T16:13:38;102222.00;;;15.49;73.21
67840;BME280;54636;51.684;5.142;2022-09-19T16:16:26;102211.78;;;15.50;72.04